sensor_id;sensor_type;location;lat;lon;timestamp;pressure;altitude;pressure_sealevel;temperature;humidity
75425;BME280;64007;50.632;13.700;2023-04-07T00:01:02;98199.31;;;1.28;69.88
75425;BME280;64007;50.632;13.700;2023-04-07T00:03:28;98193.94;;;1.31;69.52
75425;BME280;64007;50.632;13.700;2023-04-07T00:05:53;98186.88;;;1.33;69.87
75425;BME280;64007;50.632;13.700;2023-04-07T00:08:19;98187.72;;;1.34;70.16
75425;BME280;64007;50.632;13.700;2023-04-07T00:10:44;98185.09;;;1.34;69.27
75425;BME280;64007;50.632;13.700;2023-04-07T00:13:10;98186.94;;;1.32;70.11
75425;BME280;64007;50.632;13.700;2023-04-07T00:15:36;98180.78;;;1.33;69.20
75425;BME280;64007;50.632;13.700;2023-04-07T00:18:02;98195.78;;;1.29;71.22
75425;BME280;64007;50.632;13.700;2023-04-07T00:20:28;98188.16;;;1.23;69.68
75425;BME280;64007;50.632;13.700;2023-04-07T00:22:53;98182.16;;;1.21;70.81
75425;BME280;64007;50.632;13.700;2023-04-07T00:25:19;98195.41;;;1.16;70.42
75425;BME280;64007;50.632;13.700;2023-04-07T00:27:45;98188.59;;;1.12;69.29
75425;BME280;64007;50.632;13.700;2023-04-07T00:30:11;98181.63;;;1.11;69.67
75425;BME280;64007;50.632;13.700;2023-04-07T00:32:37;98175.50;;;1.12;70.51
75425;BME280;64007;50.632;13.700;2023-04-07T00:35:02;98178.22;;;1.09;71.13
75425;BME280;64007;50.632;13.700;2023-04-07T00:37:28;98180.19;;;1.04;71.16
75425;BME280;64007;50.632;13.700;2023-04-07T00:39:54;98176.13;;;0.97;71.13
75425;BME280;64007;50.632;13.700;2023-04-07T00:42:21;98165.88;;;0.91;71.00
75425;BME280;64007;50.632;13.700;2023-04-07T00:44:47;98169.47;;;0.88;73.00
75425;BME280;64007;50.632;13.700;2023-04-07T00:47:14;98170.34;;;0.89;72.21
75425;BME280;64007;50.632;13.700;2023-04-07T00:49:39;98166.19;;;0.83;72.52
75425;BME280;64007;50.632;13.700;2023-04-07T00:52:06;98164.50;;;0.82;71.87
75425;BME280;64007;50.632;13.700;2023-04-07T00:54:32;98163.63;;;0.82;72.10
75425;BME280;64007;50.632;13.700;2023-04-07T00:56:58;98165.34;;;0.83;71.92
75425;BME280;64007;50.632;13.700;2023-04-07T00:59:24;98162.78;;;0.81;72.48
75425;BME280;64007;50.632;13.700;2023-04-07T01:01:57;98156.69;;;0.81;73.40
75425;BME280;64007;50.632;13.700;2023-04-07T01:07:04;98155.09;;;0.77;75.36
75425;BME280;64007;50.632;13.700;2023-04-07T01:09:38;98150.72;;;0.77;74.43
75425;BME280;64007;50.632;13.700;2023-04-07T01:12:18;98140.50;;;0.71;74.40
75425;BME280;64007;50.632;13.700;2023-04-07T01:14:49;98146.56;;;0.72;72.88
75425;BME280;64007;50.632;13.700;2023-04-07T01:17:19;98135.25;;;0.71;71.63
75425;BME280;64007;50.632;13.700;2023-04-07T01:19:56;98145.00;;;0.68;73.87
75425;BME280;64007;50.632;13.700;2023-04-07T01:22:28;98138.19;;;0.63;74.14
75425;BME280;64007;50.632;13.700;2023-04-07T01:25:25;98133.19;;;0.57;73.99
75425;BME280;64007;50.632;13.700;2023-04-07T01:30:28;98133.44;;;0.51;74.28
75425;BME280;64007;50.632;13.700;2023-04-07T01:32:58;98131.72;;;0.50;74.61
75425;BME280;64007;50.632;13.700;2023-04-07T01:35:25;98130.81;;;0.51;74.46
75425;BME280;64007;50.632;13.700;2023-04-07T01:37:53;98122.34;;;0.45;74.87
75425;BME280;64007;50.632;13.700;2023-04-07T01:40:20;98126.84;;;0.41;75.03
75425;BME280;64007;50.632;13.700;2023-04-07T01:42:47;98121.72;;;0.38;74.56
75425;BME280;64007;50.632;13.700;2023-04-07T01:45:13;98120.78;;;0.41;74.24
75425;BME280;64007;50.632;13.700;2023-04-07T01:47:40;98124.31;;;0.38;74.95
75425;BME280;64007;50.632;13.700;2023-04-07T01:50:08;98120.97;;;0.35;74.05
75425;BME280;64007;50.632;13.700;2023-04-07T01:52:35;98128.03;;;0.32;74.33
75425;BME280;64007;50.632;13.700;2023-04-07T01:55:05;98128.03;;;0.32;74.91
75425;BME280;64007;50.632;13.700;2023-04-07T01:57:31;98127.25;;;0.30;73.93
75425;BME280;64007;50.632;13.700;2023-04-07T01:59:57;98128.31;;;0.25;73.69
75425;BME280;64007;50.632;13.700;2023-04-07T02:02:23;98129.19;;;0.25;74.41
75425;BME280;64007;50.632;13.700;2023-04-07T02:04:54;98125.84;;;0.22;75.78
75425;BME280;64007;50.632;13.700;2023-04-07T02:07:30;98124.91;;;0.23;76.23
75425;BME280;64007;50.632;13.700;2023-04-07T02:09:58;98120.72;;;0.19;76.41
75425;BME280;64007;50.632;13.700;2023-04-07T02:12:27;98121.88;;;0.12;76.29
75425;BME280;64007;50.632;13.700;2023-04-07T02:14:54;98115.06;;;0.08;76.08
75425;BME280;64007;50.632;13.700;2023-04-07T02:17:26;98107.44;;;0.02;79.10
75425;BME280;64007;50.632;13.700;2023-04-07T02:19:52;98097.19;;;-0.05;80.46
75425;BME280;64007;50.632;13.700;2023-04-07T02:22:20;98099.13;;;-0.10;80.74
75425;BME280;64007;50.632;13.700;2023-04-07T02:24:46;98107.94;;;-0.12;80.77
75425;BME280;64007;50.632;13.700;2023-04-07T02:27:11;98106.00;;;-0.07;80.29
75425;BME280;64007;50.632;13.700;2023-04-07T02:29:37;98104.34;;;-0.10;79.68
75425;BME280;64007;50.632;13.700;2023-04-07T02:32:04;98105.38;;;-0.14;82.23
75425;BME280;64007;50.632;13.700;2023-04-07T02:34:30;98095.16;;;-0.20;81.54
75425;BME280;64007;50.632;13.700;2023-04-07T02:36:56;98104.69;;;-0.19;82.10
75425;BME280;64007;50.632;13.700;2023-04-07T02:39:21;98106.28;;;-0.15;81.82
75425;BME280;64007;50.632;13.700;2023-04-07T02:41:47;98106.41;;;-0.18;82.75
75425;BME280;64007;50.632;13.700;2023-04-07T02:44:13;98096.75;;;-0.16;82.42
75425;BME280;64007;50.632;13.700;2023-04-07T02:46:38;98106.41;;;-0.18;83.49
75425;BME280;64007;50.632;13.700;2023-04-07T02:49:05;98102.97;;;-0.20;82.12
75425;BME280;64007;50.632;13.700;2023-04-07T02:51:31;98097.53;;;-0.14;82.41
75425;BME280;64007;50.632;13.700;2023-04-07T02:53:57;98096.91;;;-0.20;83.10
75425;BME280;64007;50.632;13.700;2023-04-07T02:56:22;98097.03;;;-0.23;85.58
75425;BME280;64007;50.632;13.700;2023-04-07T02:58:48;98091.16;;;-0.30;82.69
75425;BME280;64007;50.632;13.700;2023-04-07T03:01:14;98091.28;;;-0.33;81.56
75425;BME280;64007;50.632;13.700;2023-04-07T03:03:39;98085.25;;;-0.35;82.11
75425;BME280;64007;50.632;13.700;2023-04-07T03:06:06;98087.88;;;-0.35;82.76
75425;BME280;64007;50.632;13.700;2023-04-07T03:08:32;98090.53;;;-0.37;83.57
75425;BME280;64007;50.632;13.700;2023-04-07T03:10:58;98086.16;;;-0.36;82.65
75425;BME280;64007;50.632;13.700;2023-04-07T03:13:23;98093.28;;;-0.41;82.88
75425;BME280;64007;50.632;13.700;2023-04-07T03:15:49;98088.28;;;-0.47;81.07
75425;BME280;64007;50.632;13.700;2023-04-07T03:18:15;98092.56;;;-0.45;82.77
75425;BME280;64007;50.632;13.700;2023-04-07T03:20:41;98084.78;;;-0.46;86.62
75425;BME280;64007;50.632;13.700;2023-04-07T03:23:07;98076.25;;;-0.51;88.76
75425;BME280;64007;50.632;13.700;2023-04-07T03:25:33;98082.91;;;-0.43;87.83
75425;BME280;64007;50.632;13.700;2023-04-07T03:27:58;98079.50;;;-0.45;91.97
75425;BME280;64007;50.632;13.700;2023-04-07T03:30:24;98084.53;;;-0.40;89.99
75425;BME280;64007;50.632;13.700;2023-04-07T03:32:50;98082.75;;;-0.38;89.06
75425;BME280;64007;50.632;13.700;2023-04-07T03:35:16;98078.22;;;-0.33;89.89
75425;BME280;64007;50.632;13.700;2023-04-07T03:37:41;98072.72;;;-0.25;89.13
75425;BME280;64007;50.632;13.700;2023-04-07T03:40:08;98074.25;;;-0.20;91.64
75425;BME280;64007;50.632;13.700;2023-04-07T03:42:33;98074.91;;;-0.15;91.45
75425;BME280;64007;50.632;13.700;2023-04-07T03:44:59;98078.22;;;-0.10;87.92
75425;BME280;64007;50.632;13.700;2023-04-07T03:47:25;98076.16;;;-0.02;88.39
75425;BME280;64007;50.632;13.700;2023-04-07T03:49:50;98076.88;;;0.04;87.32
75425;BME280;64007;50.632;13.700;2023-04-07T03:52:16;98077.41;;;0.12;85.08
75425;BME280;64007;50.632;13.700;2023-04-07T03:54:42;98074.69;;;0.15;84.93
75425;BME280;64007;50.632;13.700;2023-04-07T03:57:08;98083.16;;;0.21;87.33
75425;BME280;64007;50.632;13.700;2023-04-07T03:59:34;98075.97;;;0.26;87.14
75425;BME280;64007;50.632;13.700;2023-04-07T04:02:00;98081.03;;;0.31;90.48
75425;BME280;64007;50.632;13.700;2023-04-07T04:04:26;98073.00;;;0.57;82.12
75425;BME280;64007;50.632;13.700;2023-04-07T04:06:51;98077.66;;;0.51;82.65
75425;BME280;64007;50.632;13.700;2023-04-07T04:09:17;98076.00;;;0.48;85.67
75425;BME280;64007;50.632;13.700;2023-04-07T04:11:43;98076.00;;;0.48;85.67
75425;BME280;64007;50.632;13.700;2023-04-07T04:14:09;98079.41;;;0.50;82.80
75425;BME280;64007;50.632;13.700;2023-04-07T04:16:34;98070.53;;;0.54;84.39
75425;BME280;64007;50.632;13.700;2023-04-07T04:19:00;98067.91;;;0.54;79.87
75425;BME280;64007;50.632;13.700;2023-04-07T04:21:26;98067.97;;;0.53;80.17
75425;BME280;64007;50.632;13.700;2023-04-07T04:23:52;98067.97;;;0.53;81.35
75425;BME280;64007;50.632;13.700;2023-04-07T04:26:18;98065.41;;;0.51;81.97
75425;BME280;64007;50.632;13.700;2023-04-07T04:28:44;98067.13;;;0.52;84.38
75425;BME280;64007;50.632;13.700;2023-04-07T04:31:09;98068.94;;;0.50;90.70
75425;BME280;64007;50.632;13.700;2023-04-07T04:33:35;98068.94;;;0.50;89.88
75425;BME280;64007;50.632;13.700;2023-04-07T04:36:00;98074.91;;;0.54;87.71
75425;BME280;64007;50.632;13.700;2023-04-07T04:38:26;98074.78;;;0.57;89.33
75425;BME280;64007;50.632;13.700;2023-04-07T04:40:52;98075.63;;;0.57;85.20
75425;BME280;64007;50.632;13.700;2023-04-07T04:43:18;98074.59;;;0.61;84.57
75425;BME280;64007;50.632;13.700;2023-04-07T04:45:43;98070.94;;;0.66;83.56
75425;BME280;64007;50.632;13.700;2023-04-07T04:48:09;98066.00;;;0.58;82.24
75425;BME280;64007;50.632;13.700;2023-04-07T04:50:35;98070.41;;;0.57;82.88
75425;BME280;64007;50.632;13.700;2023-04-07T04:53:01;98064.38;;;0.55;83.64
75425;BME280;64007;50.632;13.700;2023-04-07T04:55:27;98067.97;;;0.53;86.42
75425;BME280;64007;50.632;13.700;2023-04-07T04:57:53;98073.94;;;0.56;83.96
75425;BME280;64007;50.632;13.700;2023-04-07T05:00:19;98065.03;;;0.60;85.14
75425;BME280;64007;50.632;13.700;2023-04-07T05:02:45;98069.47;;;0.58;83.76
75425;BME280;64007;50.632;13.700;2023-04-07T05:05:12;98071.97;;;0.61;82.45
75425;BME280;64007;50.632;13.700;2023-04-07T05:07:38;98071.97;;;0.61;83.13
75425;BME280;64007;50.632;13.700;2023-04-07T05:10:06;98070.16;;;0.63;86.88
75425;BME280;64007;50.632;13.700;2023-04-07T05:12:32;98071.84;;;0.65;87.73
75425;BME280;64007;50.632;13.700;2023-04-07T05:14:57;98064.78;;;0.67;84.98
75425;BME280;64007;50.632;13.700;2023-04-07T05:17:23;98063.09;;;0.66;84.44
75425;BME280;64007;50.632;13.700;2023-04-07T05:19:49;98064.78;;;0.67;88.45
75425;BME280;64007;50.632;13.700;2023-04-07T05:22:15;98054.06;;;0.73;89.26
75425;BME280;64007;50.632;13.700;2023-04-07T05:24:41;98057.41;;;0.76;90.68
75425;BME280;64007;50.632;13.700;2023-04-07T05:27:06;98057.13;;;0.84;88.84
75425;BME280;64007;50.632;13.700;2023-04-07T05:29:32;98062.75;;;0.95;93.04
75425;BME280;64007;50.632;13.700;2023-04-07T05:31:58;98057.91;;;1.06;92.20
75425;BME280;64007;50.632;13.700;2023-04-07T05:34:26;98051.28;;;1.18;85.70
75425;BME280;64007;50.632;13.700;2023-04-07T05:36:52;98056.31;;;1.24;80.67
75425;BME280;64007;50.632;13.700;2023-04-07T05:39:18;98054.13;;;1.34;82.14
75425;BME280;64007;50.632;13.700;2023-04-07T05:41:44;98059.19;;;1.57;74.91
75425;BME280;64007;50.632;13.700;2023-04-07T05:44:09;98059.69;;;1.85;71.11
75425;BME280;64007;50.632;13.700;2023-04-07T05:46:35;98051.31;;;1.96;71.24
75425;BME280;64007;50.632;13.700;2023-04-07T05:49:00;98050.13;;;1.84;71.54
75425;BME280;64007;50.632;13.700;2023-04-07T05:51:26;98052.75;;;1.84;73.48
75425;BME280;64007;50.632;13.700;2023-04-07T05:53:52;98058.63;;;1.89;73.03
75425;BME280;64007;50.632;13.700;2023-04-07T05:56:18;98062.66;;;1.97;72.74
75425;BME280;64007;50.632;13.700;2023-04-07T05:58:43;98050.94;;;2.05;73.36
75425;BME280;64007;50.632;13.700;2023-04-07T06:01:09;98053.13;;;2.14;73.75
75425;BME280;64007;50.632;13.700;2023-04-07T06:03:35;98051.91;;;2.40;71.67
75425;BME280;64007;50.632;13.700;2023-04-07T06:06:01;98055.56;;;2.55;71.82
75425;BME280;64007;50.632;13.700;2023-04-07T06:08:26;98049.31;;;2.58;69.75
75425;BME280;64007;50.632;13.700;2023-04-07T06:10:52;98042.66;;;2.50;72.14
75425;BME280;64007;50.632;13.700;2023-04-07T06:13:18;98050.25;;;2.74;74.81
75425;BME280;64007;50.632;13.700;2023-04-07T06:15:43;98050.75;;;2.82;74.29
75425;BME280;64007;50.632;13.700;2023-04-07T06:18:09;98038.88;;;2.92;74.14
75425;BME280;64007;50.632;13.700;2023-04-07T06:20:35;98052.22;;;2.88;74.88
75425;BME280;64007;50.632;13.700;2023-04-07T06:23:01;98045.97;;;2.90;75.99
75425;BME280;64007;50.632;13.700;2023-04-07T06:25:26;98048.22;;;2.98;74.98
75425;BME280;64007;50.632;13.700;2023-04-07T06:27:53;98051.00;;;2.95;74.75
75425;BME280;64007;50.632;13.700;2023-04-07T06:30:19;98042.72;;;3.02;74.67
75425;BME280;64007;50.632;13.700;2023-04-07T06:32:44;98047.50;;;3.11;75.68
75425;BME280;64007;50.632;13.700;2023-04-07T06:35:11;98046.72;;;3.44;73.41
75425;BME280;64007;50.632;13.700;2023-04-07T06:37:36;98048.88;;;3.53;71.30
75425;BME280;64007;50.632;13.700;2023-04-07T06:40:05;98045.22;;;3.56;70.01
75425;BME280;64007;50.632;13.700;2023-04-07T06:42:31;98054.63;;;3.44;70.46
75425;BME280;64007;50.632;13.700;2023-04-07T06:44:57;98046.03;;;3.40;72.29
75425;BME280;64007;50.632;13.700;2023-04-07T06:47:22;98050.41;;;3.74;73.88
75425;BME280;64007;50.632;13.700;2023-04-07T06:49:48;98041.56;;;3.75;73.76
75425;BME280;64007;50.632;13.700;2023-04-07T06:52:14;98052.97;;;3.92;72.05
75425;BME280;64007;50.632;13.700;2023-04-07T06:54:40;98047.25;;;4.01;71.82
75425;BME280;64007;50.632;13.700;2023-04-07T06:57:05;98051.88;;;3.96;72.39
75425;BME280;64007;50.632;13.700;2023-04-07T06:59:39;98041.81;;;4.04;72.67
75425;BME280;64007;50.632;13.700;2023-04-07T07:02:05;98038.25;;;4.05;72.52
75425;BME280;64007;50.632;13.700;2023-04-07T07:04:33;98043.81;;;3.99;71.56
75425;BME280;64007;50.632;13.700;2023-04-07T07:06:58;98046.31;;;4.18;72.50
75425;BME280;64007;50.632;13.700;2023-04-07T07:09:24;98039.63;;;4.44;73.44
75425;BME280;64007;50.632;13.700;2023-04-07T07:11:51;98055.75;;;4.53;72.85
75425;BME280;64007;50.632;13.700;2023-04-07T07:14:17;98045.13;;;4.55;69.87
75425;BME280;64007;50.632;13.700;2023-04-07T07:16:43;98049.69;;;4.67;71.01
75425;BME280;64007;50.632;13.700;2023-04-07T07:19:09;98040.94;;;4.82;69.08
75425;BME280;64007;50.632;13.700;2023-04-07T07:21:35;98038.28;;;5.12;68.45
75425;BME280;64007;50.632;13.700;2023-04-07T07:24:01;98043.91;;;5.22;66.94
75425;BME280;64007;50.632;13.700;2023-04-07T07:26:27;98042.69;;;5.27;64.70
75425;BME280;64007;50.632;13.700;2023-04-07T07:28:52;98042.06;;;5.52;62.56
75425;BME280;64007;50.632;13.700;2023-04-07T07:31:18;98043.09;;;5.50;62.90
75425;BME280;64007;50.632;13.700;2023-04-07T07:33:44;98041.03;;;5.55;63.35
75425;BME280;64007;50.632;13.700;2023-04-07T07:36:11;98037.56;;;5.69;63.87
75425;BME280;64007;50.632;13.700;2023-04-07T07:38:38;98043.22;;;5.62;60.86
75425;BME280;64007;50.632;13.700;2023-04-07T07:41:05;98045.13;;;5.75;63.23
75425;BME280;64007;50.632;13.700;2023-04-07T07:43:31;98051.06;;;5.92;62.25
75425;BME280;64007;50.632;13.700;2023-04-07T07:45:57;98051.72;;;6.24;59.56
75425;BME280;64007;50.632;13.700;2023-04-07T07:48:22;98057.56;;;6.29;54.49
75425;BME280;64007;50.632;13.700;2023-04-07T07:50:48;98048.69;;;6.45;55.82
75425;BME280;64007;50.632;13.700;2023-04-07T07:53:15;98053.19;;;6.57;54.33
75425;BME280;64007;50.632;13.700;2023-04-07T07:55:40;98057.66;;;6.69;56.27
75425;BME280;64007;50.632;13.700;2023-04-07T07:58:06;98056.28;;;6.90;55.98
75425;BME280;64007;50.632;13.700;2023-04-07T08:00:32;98051.88;;;7.04;55.65
75425;BME280;64007;50.632;13.700;2023-04-07T08:02:58;98052.53;;;7.20;53.60
75425;BME280;64007;50.632;13.700;2023-04-07T08:05:24;98050.91;;;7.32;54.34
75425;BME280;64007;50.632;13.700;2023-04-07T08:07:52;98050.38;;;7.39;53.66
75425;BME280;64007;50.632;13.700;2023-04-07T08:10:17;98043.50;;;7.49;52.37
75425;BME280;64007;50.632;13.700;2023-04-07T08:12:45;98045.88;;;7.67;52.20
75425;BME280;64007;50.632;13.700;2023-04-07T08:15:10;98048.63;;;7.78;49.97
75425;BME280;64007;50.632;13.700;2023-04-07T08:17:37;98053.06;;;7.90;49.79
75425;BME280;64007;50.632;13.700;2023-04-07T08:20:04;98054.97;;;8.01;51.39
75425;BME280;64007;50.632;13.700;2023-04-07T08:22:29;98058.25;;;8.17;48.65
75425;BME280;64007;50.632;13.700;2023-04-07T08:24:55;98065.34;;;8.16;50.51
75425;BME280;64007;50.632;13.700;2023-04-07T08:27:21;98066.81;;;8.21;45.55
75425;BME280;64007;50.632;13.700;2023-04-07T08:30:00;98066.59;;;8.36;47.73
75425;BME280;64007;50.632;13.700;2023-04-07T08:32:44;98072.53;;;8.40;46.79
75425;BME280;64007;50.632;13.700;2023-04-07T08:35:10;98070.50;;;8.56;48.36
75425;BME280;64007;50.632;13.700;2023-04-07T08:37:37;98070.34;;;8.70;47.82
75425;BME280;64007;50.632;13.700;2023-04-07T08:40:04;98062.66;;;8.78;44.60
75425;BME280;64007;50.632;13.700;2023-04-07T08:42:31;98065.03;;;8.70;43.73
75425;BME280;64007;50.632;13.700;2023-04-07T08:45:02;98060.19;;;8.64;41.36
75425;BME280;64007;50.632;13.700;2023-04-07T08:47:34;98058.72;;;8.60;39.57
75425;BME280;64007;50.632;13.700;2023-04-07T08:50:02;98061.69;;;8.56;40.75
75425;BME280;64007;50.632;13.700;2023-04-07T08:52:41;98062.00;;;8.88;42.92
75425;BME280;64007;50.632;13.700;2023-04-07T08:55:08;98064.16;;;8.83;41.73
75425;BME280;64007;50.632;13.700;2023-04-07T08:57:35;98064.31;;;8.92;42.00
75425;BME280;64007;50.632;13.700;2023-04-07T09:00:02;98057.09;;;8.94;41.46
75425;BME280;64007;50.632;13.700;2023-04-07T09:02:33;98052.81;;;9.04;41.40
75425;BME280;64007;50.632;13.700;2023-04-07T09:04:59;98052.22;;;9.12;43.26
75425;BME280;64007;50.632;13.700;2023-04-07T09:07:26;98045.31;;;9.22;43.92
75425;BME280;64007;50.632;13.700;2023-04-07T09:09:51;98041.75;;;9.46;42.90
75425;BME280;64007;50.632;13.700;2023-04-07T09:12:17;98035.31;;;9.72;42.80
75425;BME280;64007;50.632;13.700;2023-04-07T09:14:43;98044.97;;;9.84;43.33
75425;BME280;64007;50.632;13.700;2023-04-07T09:17:08;98051.28;;;10.05;43.82
75425;BME280;64007;50.632;13.700;2023-04-07T09:19:34;98046.91;;;9.93;41.41
75425;BME280;64007;50.632;13.700;2023-04-07T09:22:00;98043.88;;;9.98;41.61
75425;BME280;64007;50.632;13.700;2023-04-07T09:24:27;98046.22;;;10.02;41.67
75425;BME280;64007;50.632;13.700;2023-04-07T09:27:17;98037.28;;;10.03;41.09
75425;BME280;64007;50.632;13.700;2023-04-07T09:29:45;98038.25;;;10.14;41.56
75425;BME280;64007;50.632;13.700;2023-04-07T09:32:11;98031.59;;;10.19;39.87
75425;BME280;64007;50.632;13.700;2023-04-07T09:34:39;98027.50;;;10.49;42.37
75425;BME280;64007;50.632;13.700;2023-04-07T09:37:06;98024.03;;;10.91;41.29
75425;BME280;64007;50.632;13.700;2023-04-07T09:39:48;98027.56;;;10.70;41.94
75425;BME280;64007;50.632;13.700;2023-04-07T09:42:15;98023.53;;;10.43;41.72
75425;BME280;64007;50.632;13.700;2023-04-07T09:44:40;98021.09;;;10.40;40.27
75425;BME280;64007;50.632;13.700;2023-04-07T09:47:06;98021.81;;;10.53;41.48
75425;BME280;64007;50.632;13.700;2023-04-07T09:49:32;98021.19;;;10.61;43.14
75425;BME280;64007;50.632;13.700;2023-04-07T09:52:12;98014.44;;;11.00;42.89
75425;BME280;64007;50.632;13.700;2023-04-07T09:54:41;98014.56;;;11.51;39.55
75425;BME280;64007;50.632;13.700;2023-04-07T09:57:08;98009.88;;;11.44;38.97
75425;BME280;64007;50.632;13.700;2023-04-07T09:59:39;98014.81;;;11.27;40.67
75425;BME280;64007;50.632;13.700;2023-04-07T10:02:07;98021.72;;;11.19;41.32
75425;BME280;64007;50.632;13.700;2023-04-07T10:04:33;98018.53;;;11.04;41.79
75425;BME280;64007;50.632;13.700;2023-04-07T10:06:59;98018.72;;;11.23;43.15
75425;BME280;64007;50.632;13.700;2023-04-07T10:09:28;98011.97;;;11.61;40.45
75425;BME280;64007;50.632;13.700;2023-04-07T10:11:56;98017.66;;;11.77;40.38
75425;BME280;64007;50.632;13.700;2023-04-07T10:14:26;98022.06;;;11.78;41.59
75425;BME280;64007;50.632;13.700;2023-04-07T10:16:53;98023.91;;;11.67;41.28
75425;BME280;64007;50.632;13.700;2023-04-07T10:19:19;98022.53;;;11.51;38.71
75425;BME280;64007;50.632;13.700;2023-04-07T10:21:48;98020.25;;;11.47;40.56
75425;BME280;64007;50.632;13.700;2023-04-07T10:26:59;98020.28;;;11.88;40.80
75425;BME280;64007;50.632;13.700;2023-04-07T10:29:36;98018.78;;;11.75;38.91
75425;BME280;64007;50.632;13.700;2023-04-07T10:32:05;98023.78;;;12.10;39.87
75425;BME280;64007;50.632;13.700;2023-04-07T10:37:21;98011.28;;;12.41;37.68
75425;BME280;64007;50.632;13.700;2023-04-07T10:39:52;98009.59;;;12.49;39.72
75425;BME280;64007;50.632;13.700;2023-04-07T10:45:07;98012.59;;;12.26;38.08
75425;BME280;64007;50.632;13.700;2023-04-07T10:47:35;98004.81;;;11.82;40.47
75425;BME280;64007;50.632;13.700;2023-04-07T10:50:21;98005.09;;;11.79;39.83
75425;BME280;64007;50.632;13.700;2023-04-07T10:53:01;98007.78;;;12.10;39.48
75425;BME280;64007;50.632;13.700;2023-04-07T10:58:19;98008.19;;;12.45;39.79
75425;BME280;64007;50.632;13.700;2023-04-07T11:03:23;97999.13;;;12.27;40.62
75425;BME280;64007;50.632;13.700;2023-04-07T11:05:49;97993.59;;;12.09;38.28
75425;BME280;64007;50.632;13.700;2023-04-07T11:08:31;97987.94;;;12.33;39.22
75425;BME280;64007;50.632;13.700;2023-04-07T11:10:57;97997.28;;;12.68;40.76
75425;BME280;64007;50.632;13.700;2023-04-07T11:13:22;97983.28;;;12.95;40.51
75425;BME280;64007;50.632;13.700;2023-04-07T11:15:49;97981.31;;;13.06;39.94
75425;BME280;64007;50.632;13.700;2023-04-07T11:18:20;97984.13;;;12.95;39.22
75425;BME280;64007;50.632;13.700;2023-04-07T11:20:55;97970.09;;;12.93;35.16
75425;BME280;64007;50.632;13.700;2023-04-07T11:23:24;97968.97;;;13.44;37.70
75425;BME280;64007;50.632;13.700;2023-04-07T11:25:59;97967.41;;;13.41;37.37
75425;BME280;64007;50.632;13.700;2023-04-07T11:28:29;97967.00;;;13.17;39.33
75425;BME280;64007;50.632;13.700;2023-04-07T11:30:55;97966.44;;;12.84;39.54
75425;BME280;64007;50.632;13.700;2023-04-07T11:33:31;97964.72;;;12.74;38.88
75425;BME280;64007;50.632;13.700;2023-04-07T11:36:00;97974.22;;;12.47;38.81
75425;BME280;64007;50.632;13.700;2023-04-07T11:38:35;97975.78;;;12.50;41.03
75425;BME280;64007;50.632;13.700;2023-04-07T11:41:13;97969.91;;;12.66;38.18
75425;BME280;64007;50.632;13.700;2023-04-07T11:43:39;97967.56;;;12.82;39.49
75425;BME280;64007;50.632;13.700;2023-04-07T11:46:12;97972.19;;;13.18;40.10
75425;BME280;64007;50.632;13.700;2023-04-07T11:48:40;97967.50;;;13.59;36.74
75425;BME280;64007;50.632;13.700;2023-04-07T11:51:14;97965.66;;;13.79;36.95
75425;BME280;64007;50.632;13.700;2023-04-07T11:53:40;97962.75;;;14.00;38.07
75425;BME280;64007;50.632;13.700;2023-04-07T11:56:08;97962.47;;;14.30;38.19
75425;BME280;64007;50.632;13.700;2023-04-07T11:58:35;97964.66;;;14.17;36.44
75425;BME280;64007;50.632;13.700;2023-04-07T12:01:03;97962.72;;;14.37;35.49
75425;BME280;64007;50.632;13.700;2023-04-07T12:03:36;97958.31;;;14.18;36.41
75425;BME280;64007;50.632;13.700;2023-04-07T12:06:02;97958.94;;;14.12;35.98
75425;BME280;64007;50.632;13.700;2023-04-07T12:08:42;97961.50;;;13.94;39.03
75425;BME280;64007;50.632;13.700;2023-04-07T12:11:09;97956.09;;;14.14;36.73
75425;BME280;64007;50.632;13.700;2023-04-07T12:13:36;97949.81;;;14.60;34.58
75425;BME280;64007;50.632;13.700;2023-04-07T12:16:02;97950.31;;;14.91;35.63
75425;BME280;64007;50.632;13.700;2023-04-07T12:18:28;97948.47;;;15.27;36.58
75425;BME280;64007;50.632;13.700;2023-04-07T12:20:53;97954.72;;;15.35;34.26
75425;BME280;64007;50.632;13.700;2023-04-07T12:23:21;97960.63;;;15.83;34.69
75425;BME280;64007;50.632;13.700;2023-04-07T12:25:46;97951.84;;;16.41;33.68
75425;BME280;64007;50.632;13.700;2023-04-07T12:28:12;97949.69;;;17.19;34.18
75425;BME280;64007;50.632;13.700;2023-04-07T12:30:38;97956.28;;;17.25;30.28
75425;BME280;64007;50.632;13.700;2023-04-07T12:33:04;97949.88;;;17.42;29.59
75425;BME280;64007;50.632;13.700;2023-04-07T12:35:30;97941.81;;;17.26;30.78
75425;BME280;64007;50.632;13.700;2023-04-07T12:37:56;97943.25;;;16.71;30.29
75425;BME280;64007;50.632;13.700;2023-04-07T12:40:23;97939.28;;;16.91;32.97
75425;BME280;64007;50.632;13.700;2023-04-07T12:42:49;97938.97;;;17.43;31.77
75425;BME280;64007;50.632;13.700;2023-04-07T12:45:14;97944.13;;;17.85;31.44
75425;BME280;64007;50.632;13.700;2023-04-07T12:47:40;97940.81;;;17.35;29.59
75425;BME280;64007;50.632;13.700;2023-04-07T12:50:06;97942.50;;;16.45;31.11
75425;BME280;64007;50.632;13.700;2023-04-07T12:52:32;97935.94;;;17.06;32.20
75425;BME280;64007;50.632;13.700;2023-04-07T12:54:58;97935.59;;;17.09;31.07
75425;BME280;64007;50.632;13.700;2023-04-07T12:57:24;97935.47;;;16.60;30.92
75425;BME280;64007;50.632;13.700;2023-04-07T12:59:49;97939.13;;;15.75;34.17
75425;BME280;64007;50.632;13.700;2023-04-07T13:02:16;97939.66;;;15.17;34.62
75425;BME280;64007;50.632;13.700;2023-04-07T13:04:43;97941.88;;;14.50;35.50
75425;BME280;64007;50.632;13.700;2023-04-07T13:07:14;97945.66;;;13.27;38.15
75425;BME280;64007;50.632;13.700;2023-04-07T13:09:41;97940.72;;;13.32;39.30
75425;BME280;64007;50.632;13.700;2023-04-07T13:12:12;97934.53;;;13.02;36.21
75425;BME280;64007;50.632;13.700;2023-04-07T13:14:39;97933.25;;;12.68;37.19